sensor_id;sensor_type;location;lat;lon;timestamp;temperature;humidity
51579;DHT22;47998;53.242;6.386;2023-07-31T00:00:29;15.90;99.90
51579;DHT22;47998;53.242;6.386;2023-07-31T00:02:55;15.90;99.90
51579;DHT22;47998;53.242;6.386;2023-07-31T00:05:21;15.90;99.90
51579;DHT22;47998;53.242;6.386;2023-07-31T00:07:47;15.90;99.90
51579;DHT22;47998;53.242;6.386;2023-07-31T00:10:15;15.90;99.90
51579;DHT22;47998;53.242;6.386;2023-07-31T00:12:44;15.80;99.90
51579;DHT22;47998;53.242;6.386;2023-07-31T00:15:10;15.70;99.90
51579;DHT22;47998;53.242;6.386;2023-07-31T00:17:37;15.70;99.90
51579;DHT22;47998;53.242;6.386;2023-07-31T00:20:03;15.70;99.90
51579;DHT22;47998;53.242;6.386;2023-07-31T00:22:31;15.70;99.90
51579;DHT22;47998;53.242;6.386;2023-07-31T00:24:57;15.70;99.90
51579;DHT22;47998;53.242;6.386;2023-07-31T00:27:23;15.60;99.90
51579;DHT22;47998;53.242;6.386;2023-07-31T00:29:49;15.60;99.90
51579;DHT22;47998;53.242;6.386;2023-07-31T00:32:14;15.60;99.90
51579;DHT22;47998;53.242;6.386;2023-07-31T00:34:40;15.60;99.90
51579;DHT22;47998;53.242;6.386;2023-07-31T00:37:06;15.60;99.90
51579;DHT22;47998;53.242;6.386;2023-07-31T00:39:34;15.50;99.90
51579;DHT22;47998;53.242;6.386;2023-07-31T00:41:59;15.60;99.90
51579;DHT22;47998;53.242;6.386;2023-07-31T00:44:25;15.50;99.90
51579;DHT22;47998;53.242;6.386;2023-07-31T00:46:52;15.50;99.90
51579;DHT22;47998;53.242;6.386;2023-07-31T00:49:18;15.50;99.90
51579;DHT22;47998;53.242;6.386;2023-07-31T00:51:44;15.40;99.90
51579;DHT22;47998;53.242;6.386;2023-07-31T00:54:09;15.50;99.90
51579;DHT22;47998;53.242;6.386;2023-07-31T00:56:36;15.40;99.90
51579;DHT22;47998;53.242;6.386;2023-07-31T00:59:02;15.40;99.90
51579;DHT22;47998;53.242;6.386;2023-07-31T01:01:28;15.40;99.90
51579;DHT22;47998;53.242;6.386;2023-07-31T01:03:54;15.40;99.90
51579;DHT22;47998;53.242;6.386;2023-07-31T01:09:22;15.30;99.90
51579;DHT22;47998;53.242;6.386;2023-07-31T01:11:53;15.30;99.90
51579;DHT22;47998;53.242;6.386;2023-07-31T01:14:21;15.20;99.90
51579;DHT22;47998;53.242;6.386;2023-07-31T01:16:47;15.20;99.90
51579;DHT22;47998;53.242;6.386;2023-07-31T01:19:15;15.20;99.90
51579;DHT22;47998;53.242;6.386;2023-07-31T01:24:55;15.20;99.90
51579;DHT22;47998;53.242;6.386;2023-07-31T01:27:24;15.20;99.90
51579;DHT22;47998;53.242;6.386;2023-07-31T01:30:00;15.20;99.90
51579;DHT22;47998;53.242;6.386;2023-07-31T01:32:28;15.30;99.90
51579;DHT22;47998;53.242;6.386;2023-07-31T01:34:55;15.10;99.90
51579;DHT22;47998;53.242;6.386;2023-07-31T01:37:22;15.10;99.90
51579;DHT22;47998;53.242;6.386;2023-07-31T01:39:52;15.20;99.90
51579;DHT22;47998;53.242;6.386;2023-07-31T01:42:17;15.20;99.90
51579;DHT22;47998;53.242;6.386;2023-07-31T01:44:43;15.10;99.90
51579;DHT22;47998;53.242;6.386;2023-07-31T01:47:08;15.10;99.90
51579;DHT22;47998;53.242;6.386;2023-07-31T01:49:34;15.10;99.90
51579;DHT22;47998;53.242;6.386;2023-07-31T01:52:00;15.20;99.90
51579;DHT22;47998;53.242;6.386;2023-07-31T01:54:26;15.20;99.90
51579;DHT22;47998;53.242;6.386;2023-07-31T01:56:51;15.20;99.90
51579;DHT22;47998;53.242;6.386;2023-07-31T01:59:17;15.10;99.90
51579;DHT22;47998;53.242;6.386;2023-07-31T02:01:43;15.10;99.90
51579;DHT22;47998;53.242;6.386;2023-07-31T02:04:08;15.00;99.90
51579;DHT22;47998;53.242;6.386;2023-07-31T02:06:34;15.10;99.90
51579;DHT22;47998;53.242;6.386;2023-07-31T02:09:00;15.00;99.90
51579;DHT22;47998;53.242;6.386;2023-07-31T02:11:25;15.10;99.90
51579;DHT22;47998;53.242;6.386;2023-07-31T02:13:51;15.10;99.90
51579;DHT22;47998;53.242;6.386;2023-07-31T02:16:17;15.00;99.90
51579;DHT22;47998;53.242;6.386;2023-07-31T02:18:42;15.20;99.90
51579;DHT22;47998;53.242;6.386;2023-07-31T02:21:08;15.10;99.90
51579;DHT22;47998;53.242;6.386;2023-07-31T02:23:34;15.10;99.90
51579;DHT22;47998;53.242;6.386;2023-07-31T02:25:59;15.10;99.90
51579;DHT22;47998;53.242;6.386;2023-07-31T02:28:25;15.10;99.90
51579;DHT22;47998;53.242;6.386;2023-07-31T02:30:51;15.10;99.90
51579;DHT22;47998;53.242;6.386;2023-07-31T02:33:17;15.10;99.90
51579;DHT22;47998;53.242;6.386;2023-07-31T02:35:43;15.10;99.90
51579;DHT22;47998;53.242;6.386;2023-07-31T02:38:09;15.10;99.90
51579;DHT22;47998;53.242;6.386;2023-07-31T02:40:34;15.10;99.90
51579;DHT22;47998;53.242;6.386;2023-07-31T02:43:00;15.00;99.90
51579;DHT22;47998;53.242;6.386;2023-07-31T02:45:26;15.00;99.90
51579;DHT22;47998;53.242;6.386;2023-07-31T02:47:51;14.90;99.90
51579;DHT22;47998;53.242;6.386;2023-07-31T02:50:17;15.10;99.90
51579;DHT22;47998;53.242;6.386;2023-07-31T02:52:43;15.10;99.90
51579;DHT22;47998;53.242;6.386;2023-07-31T02:55:09;15.00;99.90
51579;DHT22;47998;53.242;6.386;2023-07-31T02:57:34;15.00;99.90
51579;DHT22;47998;53.242;6.386;2023-07-31T03:00:00;15.00;99.90
51579;DHT22;47998;53.242;6.386;2023-07-31T03:02:26;15.00;99.90
51579;DHT22;47998;53.242;6.386;2023-07-31T03:04:52;14.90;99.90
51579;DHT22;47998;53.242;6.386;2023-07-31T03:07:17;14.90;99.90
51579;DHT22;47998;53.242;6.386;2023-07-31T03:09:43;15.00;99.90
51579;DHT22;47998;53.242;6.386;2023-07-31T03:12:09;15.00;99.90
51579;DHT22;47998;53.242;6.386;2023-07-31T03:14:34;15.00;99.90
51579;DHT22;47998;53.242;6.386;2023-07-31T03:17:00;15.10;99.90
51579;DHT22;47998;53.242;6.386;2023-07-31T03:19:26;14.90;99.90
51579;DHT22;47998;53.242;6.386;2023-07-31T03:21:51;15.00;99.90
51579;DHT22;47998;53.242;6.386;2023-07-31T03:24:17;14.90;99.90
51579;DHT22;47998;53.242;6.386;2023-07-31T03:26:43;15.00;99.90
51579;DHT22;47998;53.242;6.386;2023-07-31T03:29:08;14.90;99.90
51579;DHT22;47998;53.242;6.386;2023-07-31T03:31:34;15.10;99.90
51579;DHT22;47998;53.242;6.386;2023-07-31T03:34:00;15.10;99.90
51579;DHT22;47998;53.242;6.386;2023-07-31T03:36:25;15.00;99.90
51579;DHT22;47998;53.242;6.386;2023-07-31T03:38:52;15.10;99.90
51579;DHT22;47998;53.242;6.386;2023-07-31T03:41:18;15.10;99.90
51579;DHT22;47998;53.242;6.386;2023-07-31T03:43:43;14.90;99.90
51579;DHT22;47998;53.242;6.386;2023-07-31T03:46:09;14.90;99.90
51579;DHT22;47998;53.242;6.386;2023-07-31T03:48:35;15.00;99.90
51579;DHT22;47998;53.242;6.386;2023-07-31T03:51:00;14.90;99.90
51579;DHT22;47998;53.242;6.386;2023-07-31T03:53:26;15.10;99.90
51579;DHT22;47998;53.242;6.386;2023-07-31T03:55:52;14.90;99.90
51579;DHT22;47998;53.242;6.386;2023-07-31T03:58:17;15.10;99.90
51579;DHT22;47998;53.242;6.386;2023-07-31T04:00:43;14.90;99.90
51579;DHT22;47998;53.242;6.386;2023-07-31T04:03:09;15.00;99.90
51579;DHT22;47998;53.242;6.386;2023-07-31T04:05:38;14.90;99.90
51579;DHT22;47998;53.242;6.386;2023-07-31T04:08:04;15.00;99.90
51579;DHT22;47998;53.242;6.386;2023-07-31T04:10:29;14.90;99.90
51579;DHT22;47998;53.242;6.386;2023-07-31T04:12:56;15.00;99.90
51579;DHT22;47998;53.242;6.386;2023-07-31T04:15:22;15.00;99.90
51579;DHT22;47998;53.242;6.386;2023-07-31T04:17:48;15.00;99.90
51579;DHT22;47998;53.242;6.386;2023-07-31T04:20:14;15.00;99.90
51579;DHT22;47998;53.242;6.386;2023-07-31T04:22:39;14.90;99.90
51579;DHT22;47998;53.242;6.386;2023-07-31T04:25:05;15.10;99.90
51579;DHT22;47998;53.242;6.386;2023-07-31T04:27:31;14.90;99.90
51579;DHT22;47998;53.242;6.386;2023-07-31T04:29:57;15.10;99.90
51579;DHT22;47998;53.242;6.386;2023-07-31T04:32:22;14.90;99.90
51579;DHT22;47998;53.242;6.386;2023-07-31T04:34:48;14.90;99.90
51579;DHT22;47998;53.242;6.386;2023-07-31T04:37:14;15.10;99.90
51579;DHT22;47998;53.242;6.386;2023-07-31T04:39:39;15.00;99.90
51579;DHT22;47998;53.242;6.386;2023-07-31T04:42:05;15.10;99.90
51579;DHT22;47998;53.242;6.386;2023-07-31T04:44:31;15.10;99.90
51579;DHT22;47998;53.242;6.386;2023-07-31T04:46:57;15.10;99.90
51579;DHT22;47998;53.242;6.386;2023-07-31T04:49:22;14.90;99.90
51579;DHT22;47998;53.242;6.386;2023-07-31T04:51:48;14.90;99.90
51579;DHT22;47998;53.242;6.386;2023-07-31T04:54:14;14.90;99.90
51579;DHT22;47998;53.242;6.386;2023-07-31T04:56:41;14.90;99.90
51579;DHT22;47998;53.242;6.386;2023-07-31T04:59:06;15.00;99.90
51579;DHT22;47998;53.242;6.386;2023-07-31T05:01:32;15.00;99.90
51579;DHT22;47998;53.242;6.386;2023-07-31T05:03:58;14.90;99.90
51579;DHT22;47998;53.242;6.386;2023-07-31T05:06:23;15.10;99.90
51579;DHT22;47998;53.242;6.386;2023-07-31T05:08:49;15.00;99.90
51579;DHT22;47998;53.242;6.386;2023-07-31T05:11:15;14.90;99.90
51579;DHT22;47998;53.242;6.386;2023-07-31T05:13:41;14.90;99.90
51579;DHT22;47998;53.242;6.386;2023-07-31T05:16:06;14.90;99.90
51579;DHT22;47998;53.242;6.386;2023-07-31T05:18:32;15.00;99.90
51579;DHT22;47998;53.242;6.386;2023-07-31T05:20:58;15.20;99.90
51579;DHT22;47998;53.242;6.386;2023-07-31T05:23:23;15.00;99.90
51579;DHT22;47998;53.242;6.386;2023-07-31T05:25:49;15.00;99.90
51579;DHT22;47998;53.242;6.386;2023-07-31T05:28:15;15.20;99.90
51579;DHT22;47998;53.242;6.386;2023-07-31T05:30:40;15.20;99.90
51579;DHT22;47998;53.242;6.386;2023-07-31T05:33:06;15.10;99.90
51579;DHT22;47998;53.242;6.386;2023-07-31T05:35:32;15.10;99.90
51579;DHT22;47998;53.242;6.386;2023-07-31T05:37:58;15.30;99.90
51579;DHT22;47998;53.242;6.386;2023-07-31T05:40:23;15.20;99.90
51579;DHT22;47998;53.242;6.386;2023-07-31T05:42:49;15.40;99.90
51579;DHT22;47998;53.242;6.386;2023-07-31T05:45:15;15.40;99.90
51579;DHT22;47998;53.242;6.386;2023-07-31T05:47:40;15.30;99.90
51579;DHT22;47998;53.242;6.386;2023-07-31T05:50:06;15.40;99.90
51579;DHT22;47998;53.242;6.386;2023-07-31T05:52:32;15.20;99.90
51579;DHT22;47998;53.242;6.386;2023-07-31T05:54:58;15.40;99.90
51579;DHT22;47998;53.242;6.386;2023-07-31T05:57:23;15.50;99.90
51579;DHT22;47998;53.242;6.386;2023-07-31T05:59:49;15.30;99.90
51579;DHT22;47998;53.242;6.386;2023-07-31T06:02:15;15.60;99.90
51579;DHT22;47998;53.242;6.386;2023-07-31T06:04:40;15.40;99.90
51579;DHT22;47998;53.242;6.386;2023-07-31T06:07:06;15.50;99.90
51579;DHT22;47998;53.242;6.386;2023-07-31T06:09:32;15.70;99.90
51579;DHT22;47998;53.242;6.386;2023-07-31T06:11:58;15.60;99.90
51579;DHT22;47998;53.242;6.386;2023-07-31T06:14:24;15.50;99.90
51579;DHT22;47998;53.242;6.386;2023-07-31T06:16:49;15.60;99.90
51579;DHT22;47998;53.242;6.386;2023-07-31T06:19:15;15.70;99.90
51579;DHT22;47998;53.242;6.386;2023-07-31T06:21:41;15.70;99.90
51579;DHT22;47998;53.242;6.386;2023-07-31T06:24:08;15.70;99.90
51579;DHT22;47998;53.242;6.386;2023-07-31T06:26:34;15.80;99.90
51579;DHT22;47998;53.242;6.386;2023-07-31T06:29:00;15.60;99.90
51579;DHT22;47998;53.242;6.386;2023-07-31T06:31:26;15.80;99.90
51579;DHT22;47998;53.242;6.386;2023-07-31T06:33:52;15.80;99.90
51579;DHT22;47998;53.242;6.386;2023-07-31T06:36:18;15.80;99.90
51579;DHT22;47998;53.242;6.386;2023-07-31T06:38:44;15.90;99.90
51579;DHT22;47998;53.242;6.386;2023-07-31T06:41:10;15.90;99.90
51579;DHT22;47998;53.242;6.386;2023-07-31T06:43:36;15.70;99.90
51579;DHT22;47998;53.242;6.386;2023-07-31T06:46:09;15.80;99.90
51579;DHT22;47998;53.242;6.386;2023-07-31T06:48:35;16.00;99.90
51579;DHT22;47998;53.242;6.386;2023-07-31T06:51:02;16.10;99.90
51579;DHT22;47998;53.242;6.386;2023-07-31T06:53:28;16.20;99.90
51579;DHT22;47998;53.242;6.386;2023-07-31T06:55:54;16.30;99.90
51579;DHT22;47998;53.242;6.386;2023-07-31T06:58:20;16.40;99.90
51579;DHT22;47998;53.242;6.386;2023-07-31T07:00:46;16.30;99.90
51579;DHT22;47998;53.242;6.386;2023-07-31T07:03:11;16.40;99.90
51579;DHT22;47998;53.242;6.386;2023-07-31T07:05:40;16.30;99.90
51579;DHT22;47998;53.242;6.386;2023-07-31T07:08:06;16.60;99.90
51579;DHT22;47998;53.242;6.386;2023-07-31T07:10:31;16.50;99.90
51579;DHT22;47998;53.242;6.386;2023-07-31T07:12:57;16.60;99.90
51579;DHT22;47998;53.242;6.386;2023-07-31T07:15:23;16.50;99.90
51579;DHT22;47998;53.242;6.386;2023-07-31T07:17:49;16.40;99.90
51579;DHT22;47998;53.242;6.386;2023-07-31T07:20:14;16.60;99.90
51579;DHT22;47998;53.242;6.386;2023-07-31T07:22:40;16.40;99.90
51579;DHT22;47998;53.242;6.386;2023-07-31T07:25:08;16.40;99.90
51579;DHT22;47998;53.242;6.386;2023-07-31T07:27:34;16.40;99.90
51579;DHT22;47998;53.242;6.386;2023-07-31T07:30:00;16.40;99.90
51579;DHT22;47998;53.242;6.386;2023-07-31T07:32:26;16.20;99.90
51579;DHT22;47998;53.242;6.386;2023-07-31T07:34:52;16.50;99.90
51579;DHT22;47998;53.242;6.386;2023-07-31T07:37:17;16.50;99.90
51579;DHT22;47998;53.242;6.386;2023-07-31T07:39:44;16.70;99.90
51579;DHT22;47998;53.242;6.386;2023-07-31T07:42:09;16.50;99.90
51579;DHT22;47998;53.242;6.386;2023-07-31T07:44:35;16.50;99.90
51579;DHT22;47998;53.242;6.386;2023-07-31T07:47:01;16.60;99.90
51579;DHT22;47998;53.242;6.386;2023-07-31T07:49:27;16.70;99.90
51579;DHT22;47998;53.242;6.386;2023-07-31T07:51:52;16.70;99.90
51579;DHT22;47998;53.242;6.386;2023-07-31T07:54:18;16.60;99.90
51579;DHT22;47998;53.242;6.386;2023-07-31T07:56:45;16.70;99.90
51579;DHT22;47998;53.242;6.386;2023-07-31T07:59:11;16.80;99.90
51579;DHT22;47998;53.242;6.386;2023-07-31T08:01:37;16.80;99.90
51579;DHT22;47998;53.242;6.386;2023-07-31T08:04:02;16.90;99.90
51579;DHT22;47998;53.242;6.386;2023-07-31T08:06:28;16.90;99.90
51579;DHT22;47998;53.242;6.386;2023-07-31T08:08:55;16.90;99.90
51579;DHT22;47998;53.242;6.386;2023-07-31T08:11:21;17.10;99.90
51579;DHT22;47998;53.242;6.386;2023-07-31T08:13:49;16.70;99.90
51579;DHT22;47998;53.242;6.386;2023-07-31T08:16:15;17.00;99.90
51579;DHT22;47998;53.242;6.386;2023-07-31T08:18:40;16.90;99.90
51579;DHT22;47998;53.242;6.386;2023-07-31T08:21:08;16.80;99.90
51579;DHT22;47998;53.242;6.386;2023-07-31T08:23:33;16.70;99.90
51579;DHT22;47998;53.242;6.386;2023-07-31T08:25:59;16.80;99.90
51579;DHT22;47998;53.242;6.386;2023-07-31T08:28:25;16.80;99.90
51579;DHT22;47998;53.242;6.386;2023-07-31T08:30:50;17.00;99.90
51579;DHT22;47998;53.242;6.386;2023-07-31T08:33:16;16.90;99.90
51579;DHT22;47998;53.242;6.386;2023-07-31T08:35:42;17.00;99.90
51579;DHT22;47998;53.242;6.386;2023-07-31T08:38:08;17.00;99.90
51579;DHT22;47998;53.242;6.386;2023-07-31T08:40:36;17.00;99.90
51579;DHT22;47998;53.242;6.386;2023-07-31T08:43:04;17.20;99.90
51579;DHT22;47998;53.242;6.386;2023-07-31T08:45:30;17.10;99.90
51579;DHT22;47998;53.242;6.386;2023-07-31T08:47:56;17.10;99.90
51579;DHT22;47998;53.242;6.386;2023-07-31T08:50:25;17.10;99.90
51579;DHT22;47998;53.242;6.386;2023-07-31T08:52:52;17.00;99.90
51579;DHT22;47998;53.242;6.386;2023-07-31T08:55:18;17.20;99.90
51579;DHT22;47998;53.242;6.386;2023-07-31T08:57:52;17.20;99.90
51579;DHT22;47998;53.242;6.386;2023-07-31T09:00:20;17.20;99.90
51579;DHT22;47998;53.242;6.386;2023-07-31T09:05:29;17.20;99.90
51579;DHT22;47998;53.242;6.386;2023-07-31T09:07:56;17.20;99.90
51579;DHT22;47998;53.242;6.386;2023-07-31T09:10:22;17.10;99.90
51579;DHT22;47998;53.242;6.386;2023-07-31T09:12:50;17.10;99.90
51579;DHT22;47998;53.242;6.386;2023-07-31T09:15:19;17.10;99.90
51579;DHT22;47998;53.242;6.386;2023-07-31T09:17:45;16.90;99.90
51579;DHT22;47998;53.242;6.386;2023-07-31T09:20:16;17.10;99.90
51579;DHT22;47998;53.242;6.386;2023-07-31T09:22:42;17.00;99.90
51579;DHT22;47998;53.242;6.386;2023-07-31T09:27:57;17.30;99.90
51579;DHT22;47998;53.242;6.386;2023-07-31T09:30:22;17.40;99.90
51579;DHT22;47998;53.242;6.386;2023-07-31T09:32:49;17.50;99.90
51579;DHT22;47998;53.242;6.386;2023-07-31T09:35:22;17.50;99.90
51579;DHT22;47998;53.242;6.386;2023-07-31T09:38:19;17.60;99.90
51579;DHT22;47998;53.242;6.386;2023-07-31T09:40:47;17.70;99.90
51579;DHT22;47998;53.242;6.386;2023-07-31T09:43:17;17.80;99.90
51579;DHT22;47998;53.242;6.386;2023-07-31T09:45:44;18.00;99.90
51579;DHT22;47998;53.242;6.386;2023-07-31T09:48:15;17.90;99.90
51579;DHT22;47998;53.242;6.386;2023-07-31T09:50:46;17.80;99.90
51579;DHT22;47998;53.242;6.386;2023-07-31T09:53:12;17.90;99.90
51579;DHT22;47998;53.242;6.386;2023-07-31T09:55:39;17.90;99.90
51579;DHT22;47998;53.242;6.386;2023-07-31T09:58:11;18.00;99.90
51579;DHT22;47998;53.242;6.386;2023-07-31T10:00:37;17.90;99.90
51579;DHT22;47998;53.242;6.386;2023-07-31T10:03:08;17.90;99.90
51579;DHT22;47998;53.242;6.386;2023-07-31T10:05:57;18.00;99.90
51579;DHT22;47998;53.242;6.386;2023-07-31T10:08:26;17.80;99.90
51579;DHT22;47998;53.242;6.386;2023-07-31T10:10:55;17.70;99.90
51579;DHT22;47998;53.242;6.386;2023-07-31T10:13:24;17.40;99.90
51579;DHT22;47998;53.242;6.386;2023-07-31T10:15:50;17.40;99.90
51579;DHT22;47998;53.242;6.386;2023-07-31T10:18:18;17.10;99.90
51579;DHT22;47998;53.242;6.386;2023-07-31T10:20:45;17.20;99.90
51579;DHT22;47998;53.242;6.386;2023-07-31T10:23:11;17.50;99.90
51579;DHT22;47998;53.242;6.386;2023-07-31T10:25:38;17.40;99.90
51579;DHT22;47998;53.242;6.386;2023-07-31T10:28:04;17.50;99.90
51579;DHT22;47998;53.242;6.386;2023-07-31T10:30:32;17.60;99.90
51579;DHT22;47998;53.242;6.386;2023-07-31T10:32:59;17.50;99.90
51579;DHT22;47998;53.242;6.386;2023-07-31T10:35:25;17.70;99.90
51579;DHT22;47998;53.242;6.386;2023-07-31T10:37:52;17.60;99.90
51579;DHT22;47998;53.242;6.386;2023-07-31T10:40:23;17.90;99.90
51579;DHT22;47998;53.242;6.386;2023-07-31T10:42:50;17.80;99.90
51579;DHT22;47998;53.242;6.386;2023-07-31T10:45:32;18.10;99.90
51579;DHT22;47998;53.242;6.386;2023-07-31T10:48:00;18.20;99.90
51579;DHT22;47998;53.242;6.386;2023-07-31T10:50:26;18.50;99.90
51579;DHT22;47998;53.242;6.386;2023-07-31T10:52:54;18.60;99.90
51579;DHT22;47998;53.242;6.386;2023-07-31T10:55:35;18.70;99.90
51579;DHT22;47998;53.242;6.386;2023-07-31T10:58:10;18.70;99.90
51579;DHT22;47998;53.242;6.386;2023-07-31T11:00:41;18.50;99.90
51579;DHT22;47998;53.242;6.386;2023-07-31T11:03:14;18.60;99.90
51579;DHT22;47998;53.242;6.386;2023-07-31T11:06:16;18.30;99.90
51579;DHT22;47998;53.242;6.386;2023-07-31T11:08:40;18.20;99.90
51579;DHT22;47998;53.242;6.386;2023-07-31T11:11:09;18.30;99.90
51579;DHT22;47998;53.242;6.386;2023-07-31T11:13:46;18.10;99.90
51579;DHT22;47998;53.242;6.386;2023-07-31T11:16:13;18.10;99.90
51579;DHT22;47998;53.242;6.386;2023-07-31T11:18:46;18.20;99.90
51579;DHT22;47998;53.242;6.386;2023-07-31T11:21:18;18.20;99.90
51579;DHT22;47998;53.242;6.386;2023-07-31T11:23:57;18.10;99.90
51579;DHT22;47998;53.242;6.386;2023-07-31T11:26:24;18.10;99.90
51579;DHT22;47998;53.242;6.386;2023-07-31T11:28:50;18.20;99.90
51579;DHT22;47998;53.242;6.386;2023-07-31T11:31:17;18.10;99.90
51579;DHT22;47998;53.242;6.386;2023-07-31T11:33:43;18.10;99.90
51579;DHT22;47998;53.242;6.386;2023-07-31T11:36:19;18.20;99.90
51579;DHT22;47998;53.242;6.386;2023-07-31T11:38:45;18.40;99.90
51579;DHT22;47998;53.242;6.386;2023-07-31T11:41:14;18.60;99.90
51579;DHT22;47998;53.242;6.386;2023-07-31T11:43:40;18.60;99.90
51579;DHT22;47998;53.242;6.386;2023-07-31T11:46:05;18.80;99.90
51579;DHT22;47998;53.242;6.386;2023-07-31T11:48:33;18.80;99.90
51579;DHT22;47998;53.242;6.386;2023-07-31T11:51:02;18.80;99.90
51579;DHT22;47998;53.242;6.386;2023-07-31T11:53:45;19.20;99.90
51579;DHT22;47998;53.242;6.386;2023-07-31T11:56:20;19.30;99.90
51579;DHT22;47998;53.242;6.386;2023-07-31T11:58:47;19.40;99.90
51579;DHT22;47998;53.242;6.386;2023-07-31T12:01:18;19.30;99.90
51579;DHT22;47998;53.242;6.386;2023-07-31T12:03:47;19.30;99.90
51579;DHT22;47998;53.242;6.386;2023-07-31T12:06:13;19.00;99.90
51579;DHT22;47998;53.242;6.386;2023-07-31T12:08:39;18.70;99.90
51579;DHT22;47998;53.242;6.386;2023-07-31T12:11:06;18.50;99.90
51579;DHT22;47998;53.242;6.386;2023-07-31T12:13:32;18.80;99.90
51579;DHT22;47998;53.242;6.386;2023-07-31T12:16:00;18.80;99.90
51579;DHT22;47998;53.242;6.386;2023-07-31T12:18:30;18.90;99.90
51579;DHT22;47998;53.242;6.386;2023-07-31T12:21:01;18.90;99.90
51579;DHT22;47998;53.242;6.386;2023-07-31T12:23:28;18.70;99.90
51579;DHT22;47998;53.242;6.386;2023-07-31T12:26:07;18.80;99.90
51579;DHT22;47998;53.242;6.386;2023-07-31T12:28:41;19.00;99.90
51579;DHT22;47998;53.242;6.386;2023-07-31T12:31:10;19.20;99.90
51579;DHT22;47998;53.242;6.386;2023-07-31T12:33:38;19.20;99.90
51579;DHT22;47998;53.242;6.386;2023-07-31T12:36:10;19.30;99.90
51579;DHT22;47998;53.242;6.386;2023-07-31T12:38:36;19.50;99.90
51579;DHT22;47998;53.242;6.386;2023-07-31T12:41:02;19.50;99.90
51579;DHT22;47998;53.242;6.386;2023-07-31T12:43:27;19.50;99.90
51579;DHT22;47998;53.242;6.386;2023-07-31T12:45:54;19.50;99.90
51579;DHT22;47998;53.242;6.386;2023-07-31T12:48:20;19.60;99.90
51579;DHT22;47998;53.242;6.386;2023-07-31T12:50:46;19.50;99.90
51579;DHT22;47998;53.242;6.386;2023-07-31T12:53:12;19.40;99.90
51579;DHT22;47998;53.242;6.386;2023-07-31T12:55:37;19.10;99.90
51579;DHT22;47998;53.242;6.386;2023-07-31T12:58:03;19.00;99.90
51579;DHT22;47998;53.242;6.386;2023-07-31T13:00:29;19.00;99.90
51579;DHT22;47998;53.242;6.386;2023-07-31T13:02:55;18.80;99.90
51579;DHT22;47998;53.242;6.386;2023-07-31T13:05:21;18.80;99.90
51579;DHT22;47998;53.242;6.386;2023-07-31T13:07:47;18.90;99.90
51579;DHT22;47998;53.242;6.386;2023-07-31T13:10:13;19.00;99.90
51579;DHT22;47998;53.242;6.386;2023-07-31T13:12:39;19.00;99.90
51579;DHT22;47998;53.242;6.386;2023-07-31T13:15:06;19.10;99.90
51579;DHT22;47998;53.242;6.386;2023-07-31T13:17:32;19.20;99.90
51579;DHT22;47998;53.242;6.386;2023-07-31T13:19:58;19.30;99.90
51579;DHT22;47998;53.242;6.386;2023-07-31T13:22:24;19.20;99.90
51579;DHT22;47998;53.242;6.386;2023-07-31T13:24:49;19.30;99.90
51579;DHT22;47998;53.242;6.386;2023-07-31T13:27:15;19.40;99.90
51579;DHT22;47998;53.242;6.386;2023-07-31T13:29:46;19.40;99.90
51579;DHT22;47998;53.242;6.386;2023-07-31T13:32:12;19.50;99.90
51579;DHT22;47998;53.242;6.386;2023-07-31T13:34:37;19.60;99.90
51579;DHT22;47998;53.242;6.386;2023-07-31T13:37:03;19.70;99.90
51579;DHT22;47998;53.242;6.386;2023-07-31T13:39:31;19.80;99.90
51579;DHT22;47998;53.242;6.386;2023-07-31T13:41:58;19.90;99.90
51579;DHT22;47998;53.242;6.386;2023-07-31T13:44:24;20.10;99.90
51579;DHT22;47998;53.242;6.386;2023-07-31T13:46:49;20.10;99.90
51579;DHT22;47998;53.242;6.386;2023-07-31T13:49:15;20.20;99.90
51579;DHT22;47998;53.242;6.386;2023-07-31T13:51:41;20.50;99.90
51579;DHT22;47998;53.242;6.386;2023-07-31T13:54:06;20.60;99.90
51579;DHT22;47998;53.242;6.386;2023-07-31T13:56:32;20.70;99.90
51579;DHT22;47998;53.242;6.386;2023-07-31T13:58:58;20.80;99.90
51579;DHT22;47998;53.242;6.386;2023-07-31T14:01:26;20.80;99.90
51579;DHT22;47998;53.242;6.386;2023-07-31T14:03:52;20.70;99.90
51579;DHT22;47998;53.242;6.386;2023-07-31T14:06:17;20.70;99.90
51579;DHT22;47998;53.242;6.386;2023-07-31T14:08:43;20.50;99.90
51579;DHT22;47998;53.242;6.386;2023-07-31T14:11:09;20.40;99.90
51579;DHT22;47998;53.242;6.386;2023-07-31T14:13:34;20.30;99.90
51579;DHT22;47998;53.242;6.386;2023-07-31T14:16:00;20.30;99.90
51579;DHT22;47998;53.242;6.386;2023-07-31T14:18:26;20.10;99.90
51579;DHT22;47998;53.242;6.386;2023-07-31T14:20:52;20.00;99.90
51579;DHT22;47998;53.242;6.386;2023-07-31T14:23:17;19.90;99.90
51579;DHT22;47998;53.242;6.386;2023-07-31T14:25:45;19.90;99.90
51579;DHT22;47998;53.242;6.386;2023-07-31T14:28:11;19.90;99.90
51579;DHT22;47998;53.242;6.386;2023-07-31T14:30:37;19.90;99.90
51579;DHT22;47998;53.242;6.386;2023-07-31T14:33:02;19.90;99.90
51579;DHT22;47998;53.242;6.386;2023-07-31T14:35:28;19.80;99.90
51579;DHT22;47998;53.242;6.386;2023-07-31T14:37:54;19.70;99.90
51579;DHT22;47998;53.242;6.386;2023-07-31T14:40:20;19.70;99.90
51579;DHT22;47998;53.242;6.386;2023-07-31T14:42:46;19.70;99.90
51579;DHT22;47998;53.242;6.386;2023-07-31T14:45:11;19.80;99.90
51579;DHT22;47998;53.242;6.386;2023-07-31T14:47:37;19.70;99.90
51579;DHT22;47998;53.242;6.386;2023-07-31T14:50:03;19.70;99.90
51579;DHT22;47998;53.242;6.386;2023-07-31T14:52:29;19.70;99.90
51579;DHT22;47998;53.242;6.386;2023-07-31T14:54:55;19.70;99.90
51579;DHT22;47998;53.242;6.386;2023-07-31T14:57:21;19.60;99.90
51579;DHT22;47998;53.242;6.386;2023-07-31T14:59:47;19.50;99.90
51579;DHT22;47998;53.242;6.386;2023-07-31T15:02:15;19.50;99.90
51579;DHT22;47998;53.242;6.386;2023-07-31T15:04:41;19.40;99.90
51579;DHT22;47998;53.242;6.386;2023-07-31T15:07:07;19.20;99.90
51579;DHT22;47998;53.242;6.386;2023-07-31T15:09:33;19.00;99.90
51579;DHT22;47998;53.242;6.386;2023-07-31T15:11:58;18.90;99.90
51579;DHT22;47998;53.242;6.386;2023-07-31T15:14:25;18.80;99.90
51579;DHT22;47998;53.242;6.386;2023-07-31T15:16:52;18.80;99.90
51579;DHT22;47998;53.242;6.386;2023-07-31T15:19:18;18.80;99.90
51579;DHT22;47998;53.242;6.386;2023-07-31T15:21:44;18.90;99.90
51579;DHT22;47998;53.242;6.386;2023-07-31T15:24:10;19.00;99.90
51579;DHT22;47998;53.242;6.386;2023-07-31T15:26:37;19.00;99.90
51579;DHT22;47998;53.242;6.386;2023-07-31T15:29:04;19.10;99.90
51579;DHT22;47998;53.242;6.386;2023-07-31T15:31:45;19.10;99.90
51579;DHT22;47998;53.242;6.386;2023-07-31T15:34:12;19.20;99.90
51579;DHT22;47998;53.242;6.386;2023-07-31T15:36:37;19.10;99.90
51579;DHT22;47998;53.242;6.386;2023-07-31T15:39:03;19.10;99.90